createdAt,value
2023-08-15T00:00:21.868Z,1007.09
2023-08-15T00:01:21.872Z,1007.12
2023-08-15T00:02:21.846Z,1007.14
2023-08-15T00:03:21.879Z,1007.15
2023-08-15T00:04:21.817Z,1007.11
2023-08-15T00:05:21.804Z,1007.13
2023-08-15T00:06:21.805Z,1007.07
2023-08-15T00:07:22.055Z,1007.10
2023-08-15T00:08:21.783Z,1007.11
2023-08-15T00:09:21.763Z,1007.12
2023-08-15T00:10:21.756Z,1007.04
2023-08-15T00:11:21.746Z,1007.04
2023-08-15T00:12:21.735Z,1007.02
2023-08-15T00:13:21.714Z,1007.04
2023-08-15T00:14:21.752Z,1007.05
2023-08-15T00:15:21.700Z,1007.03
2023-08-15T00:16:21.729Z,1007.08
2023-08-15T00:17:21.873Z,1007.05
2023-08-15T00:18:21.664Z,1007.04
2023-08-15T00:19:21.648Z,1007.07
2023-08-15T00:20:21.652Z,1007.06
2023-08-15T00:21:21.630Z,1007.10
2023-08-15T00:22:21.623Z,1007.09
2023-08-15T00:23:21.653Z,1007.12
2023-08-15T00:24:21.612Z,1007.11
2023-08-15T00:25:21.596Z,1007.15
2023-08-15T00:26:21.582Z,1007.13
2023-08-15T00:27:21.819Z,1007.10
2023-08-15T00:28:21.561Z,1007.07
2023-08-15T00:29:21.549Z,1007.07
2023-08-15T00:30:21.548Z,1007.05
2023-08-15T00:31:21.550Z,1007.01
2023-08-15T00:32:21.517Z,1006.98
2023-08-15T00:33:21.499Z,1007.00
2023-08-15T00:34:21.501Z,1006.97
2023-08-15T00:35:21.478Z,1006.95
2023-08-15T00:36:21.475Z,1006.97
2023-08-15T00:37:21.614Z,1006.92
2023-08-15T00:38:21.494Z,1006.94
2023-08-15T00:39:21.444Z,1006.93
2023-08-15T00:40:21.431Z,1006.91
2023-08-15T00:41:21.422Z,1006.95
2023-08-15T00:42:21.407Z,1006.94
2023-08-15T00:43:21.408Z,1006.94
2023-08-15T00:44:21.392Z,1006.94
2023-08-15T00:45:21.395Z,1006.88
2023-08-15T00:46:21.401Z,1006.87
2023-08-15T00:47:21.645Z,1006.85
2023-08-15T00:48:21.342Z,1006.81
2023-08-15T00:49:21.333Z,1006.79
2023-08-15T00:50:21.321Z,1006.75
2023-08-15T00:51:21.306Z,1006.75
2023-08-15T00:52:21.296Z,1006.79
2023-08-15T00:53:21.293Z,1006.72
2023-08-15T00:54:21.285Z,1006.72
2023-08-15T00:55:21.256Z,1006.72
2023-08-15T00:56:21.254Z,1006.72
2023-08-15T00:57:21.481Z,1006.70
2023-08-15T00:58:21.241Z,1006.69
2023-08-15T00:59:21.220Z,1006.66
2023-08-15T01:00:21.242Z,1006.68
2023-08-15T01:01:21.216Z,1006.72
2023-08-15T01:02:21.204Z,1006.67
2023-08-15T01:03:21.218Z,1006.66
2023-08-15T01:04:21.172Z,1006.67
2023-08-15T01:05:21.154Z,1006.72
2023-08-15T01:06:21.142Z,1006.73
2023-08-15T01:07:21.309Z,1006.69
2023-08-15T01:08:21.129Z,1006.72
2023-08-15T01:09:21.105Z,1006.68
2023-08-15T01:10:21.110Z,1006.68
2023-08-15T01:11:21.083Z,1006.71
2023-08-15T01:12:21.132Z,1006.69
2023-08-15T01:13:21.084Z,1006.69
2023-08-15T01:14:21.097Z,1006.66
2023-08-15T01:15:21.038Z,1006.71
2023-08-15T01:16:21.057Z,1006.76
2023-08-15T01:17:21.219Z,1006.78
2023-08-15T01:18:21.010Z,1006.78
2023-08-15T01:19:20.992Z,1006.78
2023-08-15T01:20:20.985Z,1006.75
2023-08-15T01:21:20.983Z,1006.74
2023-08-15T01:22:20.981Z,1006.78
2023-08-15T01:23:20.959Z,1006.78
2023-08-15T01:24:20.946Z,1006.77
2023-08-15T01:25:20.931Z,1006.76
2023-08-15T01:26:20.955Z,1006.77
2023-08-15T01:27:21.188Z,1006.79
2023-08-15T01:28:20.897Z,1006.82
2023-08-15T01:29:20.884Z,1006.82
2023-08-15T01:30:20.874Z,1006.81
2023-08-15T01:31:20.873Z,1006.80
2023-08-15T01:32:20.865Z,1006.79
2023-08-15T01:33:20.863Z,1006.79
2023-08-15T01:34:20.835Z,1006.74
2023-08-15T01:35:20.845Z,1006.75
2023-08-15T01:36:20.821Z,1006.71
2023-08-15T01:37:21.029Z,1006.70
2023-08-15T01:38:20.786Z,1006.74
2023-08-15T01:39:20.776Z,1006.72
2023-08-15T01:40:20.774Z,1006.66
2023-08-15T01:41:20.747Z,1006.63
2023-08-15T01:42:20.741Z,1006.65
2023-08-15T01:43:20.726Z,1006.64
2023-08-15T01:44:20.724Z,1006.64
2023-08-15T01:45:20.719Z,1006.63
2023-08-15T01:46:20.768Z,1006.61
2023-08-15T01:47:20.804Z,1006.62
2023-08-15T01:48:20.675Z,1006.66
2023-08-15T01:49:20.671Z,1006.64
2023-08-15T01:50:20.669Z,1006.64
2023-08-15T01:51:20.649Z,1006.62
2023-08-15T01:52:20.805Z,1006.61
2023-08-15T01:53:20.620Z,1006.62
2023-08-15T01:54:20.623Z,1006.61
2023-08-15T01:55:20.607Z,1006.53
2023-08-15T01:56:20.589Z,1006.54
2023-08-15T01:57:20.831Z,1006.55
2023-08-15T01:58:20.562Z,1006.58
2023-08-15T01:59:20.558Z,1006.59
2023-08-15T02:00:20.545Z,1006.62
2023-08-15T02:01:20.555Z,1006.59
2023-08-15T02:02:20.610Z,1006.64
2023-08-15T02:03:20.502Z,1006.60
2023-08-15T02:04:20.508Z,1006.65
2023-08-15T02:05:20.505Z,1006.66
2023-08-15T02:06:20.478Z,1006.67
2023-08-15T02:07:20.704Z,1006.65
2023-08-15T02:08:20.463Z,1006.65
2023-08-15T02:09:20.448Z,1006.60
2023-08-15T02:10:20.429Z,1006.58
2023-08-15T02:11:20.464Z,1006.54
2023-08-15T02:12:20.406Z,1006.52
2023-08-15T02:13:20.481Z,1006.53
2023-08-15T02:14:20.397Z,1006.51
2023-08-15T02:15:20.373Z,1006.48
2023-08-15T02:16:20.416Z,1006.46
2023-08-15T02:17:20.636Z,1006.47
2023-08-15T02:18:20.354Z,1006.48
2023-08-15T02:19:20.326Z,1006.48
2023-08-15T02:20:20.321Z,1006.45
2023-08-15T02:21:20.314Z,1006.44
2023-08-15T02:22:20.312Z,1006.45
2023-08-15T02:23:20.294Z,1006.45
2023-08-15T02:24:20.276Z,1006.44
2023-08-15T02:25:20.286Z,1006.44
2023-08-15T02:26:20.259Z,1006.45
2023-08-15T02:27:20.471Z,1006.47
2023-08-15T02:28:20.228Z,1006.46
2023-08-15T02:29:20.217Z,1006.46
2023-08-15T02:30:20.210Z,1006.52
2023-08-15T02:31:20.292Z,1006.57
2023-08-15T02:32:20.198Z,1006.51
2023-08-15T02:33:20.191Z,1006.58
2023-08-15T02:34:20.169Z,1006.59
2023-08-15T02:35:20.251Z,1006.62
2023-08-15T02:36:20.165Z,1006.64
2023-08-15T02:37:20.475Z,1006.62
2023-08-15T02:38:20.119Z,1006.63
2023-08-15T02:39:20.109Z,1006.66
2023-08-15T02:40:20.100Z,1006.65
2023-08-15T02:41:20.097Z,1006.67
2023-08-15T02:42:20.083Z,1006.71
2023-08-15T02:43:20.058Z,1006.71
2023-08-15T02:44:20.051Z,1006.69
2023-08-15T02:45:20.045Z,1006.68
2023-08-15T02:46:20.086Z,1006.71
2023-08-15T02:47:20.261Z,1006.66
2023-08-15T02:48:20.017Z,1006.61
2023-08-15T02:49:19.997Z,1006.61
2023-08-15T02:50:19.981Z,1006.55
2023-08-15T02:51:19.990Z,1006.56
2023-08-15T02:52:19.961Z,1006.53
2023-08-15T02:53:19.956Z,1006.54
2023-08-15T02:54:19.943Z,1006.54
2023-08-15T02:55:19.947Z,1006.49
2023-08-15T02:56:19.922Z,1006.49
2023-08-15T02:57:20.141Z,1006.47
2023-08-15T02:58:19.917Z,1006.45
2023-08-15T02:59:19.903Z,1006.42
2023-08-15T03:00:19.890Z,1006.44
2023-08-15T03:01:19.902Z,1006.47
2023-08-15T03:02:19.866Z,1006.49
2023-08-15T03:03:19.868Z,1006.51
2023-08-15T03:04:19.823Z,1006.57
2023-08-15T03:05:19.829Z,1006.59
2023-08-15T03:06:19.808Z,1006.69
2023-08-15T03:07:20.159Z,1006.64
2023-08-15T03:08:19.783Z,1006.68
2023-08-15T03:09:19.791Z,1006.64
2023-08-15T03:10:19.782Z,1006.64
2023-08-15T03:11:19.758Z,1006.59
2023-08-15T03:12:19.743Z,1006.58
2023-08-15T03:13:19.731Z,1006.57
2023-08-15T03:14:19.730Z,1006.57
2023-08-15T03:15:19.723Z,1006.60
2023-08-15T03:16:19.728Z,1006.62
2023-08-15T03:17:20.166Z,1006.61
2023-08-15T03:18:19.673Z,1006.59
2023-08-15T03:19:19.683Z,1006.52
2023-08-15T03:20:19.654Z,1006.50
2023-08-15T03:21:19.643Z,1006.57
2023-08-15T03:22:19.629Z,1006.51
2023-08-15T03:23:19.636Z,1006.57
2023-08-15T03:24:19.626Z,1006.57
2023-08-15T03:25:19.604Z,1006.55
2023-08-15T03:26:19.591Z,1006.55
2023-08-15T03:27:19.639Z,1006.57
2023-08-15T03:28:19.572Z,1006.61
2023-08-15T03:29:19.570Z,1006.50
2023-08-15T03:30:19.538Z,1006.56
2023-08-15T03:31:19.607Z,1006.54
2023-08-15T03:32:19.548Z,1006.53
2023-08-15T03:33:19.518Z,1006.49
2023-08-15T03:34:19.511Z,1006.47
2023-08-15T03:35:22.339Z,1006.45
2023-08-15T03:36:19.486Z,1006.44
2023-08-15T03:37:19.713Z,1006.43
2023-08-15T03:38:19.468Z,1006.43
2023-08-15T03:39:19.442Z,1006.40
2023-08-15T03:40:19.433Z,1006.38
2023-08-15T03:41:19.426Z,1006.37
2023-08-15T03:42:19.421Z,1006.32
2023-08-15T03:43:19.402Z,1006.29
2023-08-15T03:44:19.390Z,1006.23
2023-08-15T03:45:19.454Z,1006.27
2023-08-15T03:46:19.462Z,1006.25
2023-08-15T03:47:19.854Z,1006.26
2023-08-15T03:48:19.343Z,1006.19
2023-08-15T03:49:19.330Z,1006.21
2023-08-15T03:50:19.329Z,1006.26
2023-08-15T03:51:38.015Z,1006.29
2023-08-15T03:52:19.320Z,1006.32
2023-08-15T03:53:19.285Z,1006.33
2023-08-15T03:54:19.286Z,1006.39
2023-08-15T03:55:19.270Z,1006.41
2023-08-15T03:56:19.266Z,1006.44
2023-08-15T03:57:19.547Z,1006.49
2023-08-15T03:58:19.233Z,1006.49
2023-08-15T03:59:19.217Z,1006.52
2023-08-15T04:00:19.209Z,1006.49
2023-08-15T04:01:19.252Z,1006.51
2023-08-15T04:02:19.184Z,1006.53
2023-08-15T04:03:19.178Z,1006.48
2023-08-15T04:04:19.190Z,1006.47
2023-08-15T04:05:19.161Z,1006.40
2023-08-15T04:06:19.160Z,1006.31
2023-08-15T04:07:19.525Z,1006.33
2023-08-15T04:08:19.117Z,1006.31
2023-08-15T04:09:19.104Z,1006.25
2023-08-15T04:10:19.104Z,1006.21
2023-08-15T04:11:19.088Z,1006.22
2023-08-15T04:12:19.154Z,1006.20
2023-08-15T04:13:19.062Z,1006.21
2023-08-15T04:14:19.065Z,1006.20
2023-08-15T04:15:19.054Z,1006.28
2023-08-15T04:16:19.090Z,1006.33
2023-08-15T04:17:19.233Z,1006.39
2023-08-15T04:18:19.011Z,1006.39
2023-08-15T04:19:19.000Z,1006.45
2023-08-15T04:20:18.994Z,1006.49
2023-08-15T04:21:18.976Z,1006.46
2023-08-15T04:22:18.964Z,1006.53
2023-08-15T04:23:18.946Z,1006.50
2023-08-15T04:24:18.984Z,1006.55
2023-08-15T04:25:18.938Z,1006.59
2023-08-15T04:26:18.919Z,1006.58
2023-08-15T04:27:19.213Z,1006.57
2023-08-15T04:28:18.901Z,1006.59
2023-08-15T04:29:18.889Z,1006.64
2023-08-15T04:30:18.877Z,1006.63
2023-08-15T04:31:18.901Z,1006.65
2023-08-15T04:32:18.856Z,1006.64
2023-08-15T04:33:18.838Z,1006.68
2023-08-15T04:34:18.842Z,1006.71
2023-08-15T04:35:18.837Z,1006.77
2023-08-15T04:36:18.809Z,1006.81
2023-08-15T04:37:19.116Z,1006.82
2023-08-15T04:38:18.798Z,1006.81
2023-08-15T04:39:18.788Z,1006.84
2023-08-15T04:40:18.820Z,1006.90
2023-08-15T04:41:18.760Z,1006.89
2023-08-15T04:42:18.753Z,1006.86
2023-08-15T04:43:18.738Z,1006.90
2023-08-15T04:44:18.729Z,1006.98
2023-08-15T04:45:18.708Z,1006.99
2023-08-15T04:46:18.737Z,1007.07
2023-08-15T04:47:18.831Z,1007.06
2023-08-15T04:48:18.688Z,1007.08
2023-08-15T04:49:18.665Z,1007.16
2023-08-15T04:50:18.671Z,1007.16
2023-08-15T04:51:18.635Z,1007.29
2023-08-15T04:52:18.634Z,1007.35
2023-08-15T04:53:18.625Z,1007.38
2023-08-15T04:54:18.608Z,1007.39
2023-08-15T04:55:18.595Z,1007.41
2023-08-15T04:56:18.588Z,1007.44
2023-08-15T04:57:18.826Z,1007.45
2023-08-15T04:58:18.579Z,1007.50
2023-08-15T04:59:18.549Z,1007.51
2023-08-15T05:00:18.551Z,1007.52
2023-08-15T05:01:18.561Z,1007.58
2023-08-15T05:02:18.534Z,1007.61
2023-08-15T05:03:18.506Z,1007.62
2023-08-15T05:04:18.503Z,1007.67
2023-08-15T05:05:18.518Z,1007.65
2023-08-15T05:06:18.478Z,1007.66
2023-08-15T05:07:18.904Z,1007.67
2023-08-15T05:08:18.457Z,1007.71
2023-08-15T05:09:18.460Z,1007.75
2023-08-15T05:10:18.452Z,1007.77
2023-08-15T05:11:18.431Z,1007.81
2023-08-15T05:12:18.432Z,1007.85
2023-08-15T05:13:18.399Z,1007.81
2023-08-15T05:14:18.397Z,1007.86
2023-08-15T05:15:18.374Z,1007.92
2023-08-15T05:16:18.411Z,1007.91
2023-08-15T05:17:18.773Z,1007.86
2023-08-15T05:18:18.353Z,1007.87
2023-08-15T05:19:18.333Z,1007.87
2023-08-15T05:20:18.337Z,1007.80
2023-08-15T05:21:18.318Z,1007.80
2023-08-15T05:22:18.313Z,1007.77
2023-08-15T05:23:18.294Z,1007.76
2023-08-15T05:24:18.281Z,1007.69
2023-08-15T05:25:18.281Z,1007.69
2023-08-15T05:26:18.267Z,1007.72
2023-08-15T05:27:18.294Z,1007.71
2023-08-15T05:28:18.238Z,1007.80
2023-08-15T05:29:18.226Z,1007.88
2023-08-15T05:30:18.227Z,1007.92
2023-08-15T05:31:18.254Z,1007.89
2023-08-15T05:32:18.195Z,1007.77
2023-08-15T05:33:18.186Z,1007.68
2023-08-15T05:34:18.174Z,1007.59
2023-08-15T05:35:18.170Z,1007.59
2023-08-15T05:36:18.154Z,1007.61
2023-08-15T05:37:18.284Z,1007.67
2023-08-15T05:38:18.128Z,1007.66
2023-08-15T05:39:18.117Z,1007.62
2023-08-15T05:40:18.118Z,1007.67
2023-08-15T05:41:18.100Z,1007.70
2023-08-15T05:42:18.082Z,1007.74
2023-08-15T05:43:18.067Z,1007.81
2023-08-15T05:44:18.066Z,1007.79
2023-08-15T05:45:18.044Z,1007.75
2023-08-15T05:46:18.059Z,1007.76
2023-08-15T05:47:18.045Z,1007.76
2023-08-15T05:48:18.031Z,1007.69
2023-08-15T05:49:18.010Z,1007.66
2023-08-15T05:50:17.993Z,1007.74
2023-08-15T05:51:17.986Z,1007.71
2023-08-15T05:52:17.965Z,1007.66
2023-08-15T05:53:17.972Z,1007.68
2023-08-15T05:54:17.965Z,1007.70
2023-08-15T05:55:17.939Z,1007.75
2023-08-15T05:56:17.923Z,1007.79
2023-08-15T05:57:17.927Z,1007.89
2023-08-15T05:58:17.942Z,1007.86
2023-08-15T05:59:17.907Z,1007.84
2023-08-15T06:00:17.882Z,1007.88
2023-08-15T06:01:17.928Z,1007.86
2023-08-15T06:02:17.858Z,1007.79
2023-08-15T06:03:26.924Z,1007.76
2023-08-15T06:04:17.865Z,1007.78
2023-08-15T06:05:17.836Z,1007.79
2023-08-15T06:06:17.815Z,1007.78
2023-08-15T06:07:17.806Z,1007.80
2023-08-15T06:08:17.799Z,1007.77
2023-08-15T06:09:18.905Z,1007.70
2023-08-15T06:10:17.774Z,1007.70
2023-08-15T06:11:17.766Z,1007.67
2023-08-15T06:12:17.758Z,1007.62
2023-08-15T06:13:17.868Z,1007.62
2023-08-15T06:14:17.728Z,1007.64
2023-08-15T06:15:17.719Z,1007.67
2023-08-15T06:16:17.752Z,1007.71
2023-08-15T06:17:17.715Z,1007.70
2023-08-15T06:18:17.686Z,1007.73
2023-08-15T06:19:17.675Z,1007.74
2023-08-15T06:20:17.670Z,1007.72
2023-08-15T06:21:17.657Z,1007.80
2023-08-15T06:22:17.651Z,1007.80
2023-08-15T06:23:17.661Z,1007.84
2023-08-15T06:24:17.632Z,1007.83
2023-08-15T06:25:17.630Z,1007.85
2023-08-15T06:26:17.604Z,1007.86
2023-08-15T06:27:17.627Z,1007.84
2023-08-15T06:28:17.574Z,1007.80
2023-08-15T06:29:17.576Z,1007.82
2023-08-15T06:30:17.558Z,1007.80
2023-08-15T06:31:17.647Z,1007.82
2023-08-15T06:32:17.533Z,1007.80
2023-08-15T06:33:17.532Z,1007.78
2023-08-15T06:34:17.518Z,1007.75
2023-08-15T06:35:17.511Z,1007.72
2023-08-15T06:36:17.499Z,1007.71
2023-08-15T06:37:17.487Z,1007.70
2023-08-15T06:38:17.478Z,1007.69
2023-08-15T06:39:17.461Z,1007.71
2023-08-15T06:40:17.454Z,1007.74
2023-08-15T06:41:17.447Z,1007.72
2023-08-15T06:42:17.425Z,1007.79
2023-08-15T06:43:17.417Z,1007.83
2023-08-15T06:44:17.404Z,1007.86
2023-08-15T06:45:17.434Z,1007.88
2023-08-15T06:46:17.406Z,1007.93
2023-08-15T06:47:17.371Z,1007.97
2023-08-15T06:48:17.357Z,1007.96
2023-08-15T06:49:17.354Z,1008.01
2023-08-15T06:50:17.351Z,1007.99
2023-08-15T06:51:17.341Z,1008.03
2023-08-15T06:52:17.315Z,1008.05
2023-08-15T06:53:17.317Z,1008.07
2023-08-15T06:54:17.301Z,1008.02
2023-08-15T06:55:17.296Z,1008.01
2023-08-15T06:56:17.270Z,1008.04
2023-08-15T06:57:17.261Z,1008.03
2023-08-15T06:58:17.245Z,1008.00
2023-08-15T06:59:17.310Z,1008.07
2023-08-15T07:00:17.251Z,1008.09
2023-08-15T07:01:17.255Z,1008.10
2023-08-15T07:02:17.203Z,1008.09
2023-08-15T07:03:17.314Z,1008.09
2023-08-15T07:04:17.202Z,1008.04
2023-08-15T07:05:17.179Z,1008.07
2023-08-15T07:06:17.171Z,1008.08
2023-08-15T07:07:17.152Z,1008.07
2023-08-15T07:08:17.149Z,1008.05
2023-08-15T07:09:17.142Z,1008.09
2023-08-15T07:10:17.127Z,1008.10
2023-08-15T07:11:17.118Z,1008.09
2023-08-15T07:12:17.144Z,1008.09
2023-08-15T07:13:17.097Z,1008.08
2023-08-15T07:14:17.075Z,1008.05
2023-08-15T07:15:17.069Z,1008.11
2023-08-15T07:16:17.099Z,1008.11
2023-08-15T07:17:17.049Z,1008.09
2023-08-15T07:18:17.041Z,1008.09
2023-08-15T07:19:17.021Z,1008.07
2023-08-15T07:20:17.005Z,1008.05
2023-08-15T07:21:22.320Z,1008.03
2023-08-15T07:22:16.991Z,1008.09
2023-08-15T07:23:16.985Z,1008.11
2023-08-15T07:24:16.961Z,1008.14
2023-08-15T07:25:16.957Z,1008.12
2023-08-15T07:26:16.951Z,1008.01
2023-08-15T07:27:16.942Z,1008.03
2023-08-15T07:28:16.925Z,1008.01
2023-08-15T07:29:16.913Z,1008.01
2023-08-15T07:30:16.898Z,1008.03
2023-08-15T07:31:16.945Z,1008.01
2023-08-15T07:32:16.883Z,1008.01
2023-08-15T07:33:16.878Z,1008.05
2023-08-15T07:34:16.877Z,1008.03
2023-08-15T07:35:16.846Z,1008.04
2023-08-15T07:36:16.826Z,1008.05
2023-08-15T07:37:16.835Z,1008.15
2023-08-15T07:38:16.808Z,1008.09
2023-08-15T07:39:16.819Z,1008.08
2023-08-15T07:40:16.807Z,1008.09
2023-08-15T07:41:16.793Z,1008.10
2023-08-15T07:42:16.779Z,1008.17
2023-08-15T07:43:16.757Z,1008.20
2023-08-15T07:44:16.768Z,1008.17
2023-08-15T07:45:16.736Z,1008.14
2023-08-15T07:46:16.806Z,1008.14
2023-08-15T07:47:16.704Z,1008.16
2023-08-15T07:48:16.708Z,1008.16
2023-08-15T07:49:16.689Z,1008.25
2023-08-15T07:50:16.704Z,1008.28
2023-08-15T07:51:16.674Z,1008.31
2023-08-15T07:52:16.662Z,1008.35
2023-08-15T07:53:16.642Z,1008.37
2023-08-15T07:54:16.658Z,1008.41
2023-08-15T07:55:16.627Z,1008.53
2023-08-15T07:56:16.623Z,1008.45
2023-08-15T07:57:16.598Z,1008.49
2023-08-15T07:58:16.593Z,1008.48
2023-08-15T07:59:16.574Z,1008.54
2023-08-15T08:00:16.607Z,1008.54
2023-08-15T08:01:16.580Z,1008.55
2023-08-15T08:02:16.547Z,1008.60
2023-08-15T08:03:16.530Z,1008.66
2023-08-15T08:04:16.527Z,1008.60
2023-08-15T08:05:16.538Z,1008.62
2023-08-15T08:06:31.682Z,1008.60
2023-08-15T08:07:16.531Z,1008.67
2023-08-15T08:08:16.505Z,1008.69
2023-08-15T08:09:16.477Z,1008.67
2023-08-15T08:10:16.469Z,1008.67
2023-08-15T08:11:16.455Z,1008.72
2023-08-15T08:12:16.441Z,1008.76
2023-08-15T08:13:17.218Z,1008.73
2023-08-15T08:14:16.427Z,1008.73
2023-08-15T08:15:16.417Z,1008.76
2023-08-15T08:16:16.410Z,1008.74
2023-08-15T08:17:16.387Z,1008.76
2023-08-15T08:18:16.371Z,1008.79
2023-08-15T08:19:16.371Z,1008.79
2023-08-15T08:20:16.349Z,1008.81
2023-08-15T08:21:16.346Z,1008.82
2023-08-15T08:22:16.334Z,1008.88
2023-08-15T08:23:16.311Z,1008.90
2023-08-15T08:24:16.321Z,1008.84
2023-08-15T08:25:16.289Z,1008.85
2023-08-15T08:26:16.287Z,1008.87
2023-08-15T08:27:16.272Z,1008.78
2023-08-15T08:28:16.272Z,1008.84
2023-08-15T08:29:16.261Z,1008.86
2023-08-15T08:30:16.284Z,1008.88
2023-08-15T08:31:16.258Z,1008.92
2023-08-15T08:32:16.219Z,1008.97
2023-08-15T08:33:16.227Z,1008.99
2023-08-15T08:34:16.209Z,1008.98
2023-08-15T08:35:16.254Z,1008.99
2023-08-15T08:36:16.251Z,1009.00
2023-08-15T08:37:16.165Z,1008.98
2023-08-15T08:38:16.799Z,1009.03
2023-08-15T08:39:29.605Z,1009.03
2023-08-15T08:40:16.149Z,1009.21
2023-08-15T08:41:16.130Z,1009.16
2023-08-15T08:42:16.121Z,1009.19
2023-08-15T08:43:16.106Z,1009.22
2023-08-15T08:44:16.089Z,1009.15
2023-08-15T08:45:16.153Z,1009.13
2023-08-15T08:46:16.139Z,1009.11
2023-08-15T08:47:16.076Z,1009.13
2023-08-15T08:48:16.043Z,1009.13
2023-08-15T08:49:16.047Z,1009.18
2023-08-15T08:50:16.051Z,1009.11
2023-08-15T08:51:16.022Z,1009.12
2023-08-15T08:52:16.039Z,1009.11
2023-08-15T08:53:15.997Z,1009.09
2023-08-15T08:54:19.181Z,1009.13
2023-08-15T08:55:15.977Z,1009.15
2023-08-15T08:56:15.961Z,1009.18
2023-08-15T08:57:15.954Z,1009.17
2023-08-15T08:58:15.960Z,1009.15
2023-08-15T08:59:15.931Z,1009.13
2023-08-15T09:00:15.922Z,1009.13
2023-08-15T09:01:15.950Z,1009.13
2023-08-15T09:02:15.985Z,1009.14
2023-08-15T09:03:16.029Z,1009.12
2023-08-15T09:04:15.865Z,1009.14
2023-08-15T09:05:15.867Z,1009.11
2023-08-15T09:06:15.856Z,1009.11
2023-08-15T09:07:15.865Z,1009.10
2023-08-15T09:08:15.828Z,1009.14
2023-08-15T09:09:15.833Z,1009.15
2023-08-15T09:10:15.808Z,1009.17
2023-08-15T09:11:15.814Z,1009.16
2023-08-15T09:12:15.790Z,1009.13
2023-08-15T09:13:15.784Z,1009.15
2023-08-15T09:14:15.758Z,1009.15
2023-08-15T09:15:15.779Z,1009.18
2023-08-15T09:16:15.800Z,1009.14
2023-08-15T09:17:15.755Z,1009.12
2023-08-15T09:18:15.734Z,1009.08
2023-08-15T09:19:15.719Z,1009.11
2023-08-15T09:20:15.759Z,1009.09
2023-08-15T09:21:15.689Z,1009.14
2023-08-15T09:22:15.673Z,1009.14
2023-08-15T09:23:15.670Z,1009.22
2023-08-15T09:24:15.649Z,1009.14
2023-08-15T09:25:15.658Z,1009.20
2023-08-15T09:26:15.650Z,1009.19
2023-08-15T09:27:15.621Z,1009.17
2023-08-15T09:28:15.606Z,1009.21
2023-08-15T09:29:15.611Z,1009.25
2023-08-15T09:30:15.590Z,1009.22
2023-08-15T09:31:15.632Z,1009.31
2023-08-15T09:32:15.564Z,1009.29
2023-08-15T09:33:15.560Z,1009.34
2023-08-15T09:34:15.559Z,1009.37
2023-08-15T09:35:15.552Z,1009.34
2023-08-15T09:36:15.520Z,1009.35
2023-08-15T09:37:15.511Z,1009.36
2023-08-15T09:38:15.510Z,1009.38
2023-08-15T09:39:15.498Z,1009.37
2023-08-15T09:40:15.488Z,1009.33
2023-08-15T09:41:15.473Z,1009.31
2023-08-15T09:42:15.458Z,1009.32
2023-08-15T09:43:15.460Z,1009.29
2023-08-15T09:44:15.446Z,1009.27
2023-08-15T09:45:15.443Z,1009.28
2023-08-15T09:46:15.458Z,1009.38
2023-08-15T09:47:15.413Z,1009.37
2023-08-15T09:48:15.394Z,1009.37
2023-08-15T09:49:15.383Z,1009.41
2023-08-15T09:50:15.384Z,1009.36
2023-08-15T09:51:15.360Z,1009.38
2023-08-15T09:52:15.345Z,1009.35
2023-08-15T09:53:15.356Z,1009.36
2023-08-15T09:54:15.323Z,1009.38
2023-08-15T09:55:15.317Z,1009.43
2023-08-15T09:56:15.303Z,1009.40
2023-08-15T09:57:15.304Z,1009.37
2023-08-15T09:58:15.294Z,1009.43
2023-08-15T09:59:16.553Z,1009.41
2023-08-15T10:00:15.302Z,1009.36
2023-08-15T10:01:15.274Z,1009.36
2023-08-15T10:02:15.249Z,1009.37
2023-08-15T10:03:15.331Z,1009.33
2023-08-15T10:04:15.224Z,1009.40
2023-08-15T10:05:15.225Z,1009.38
2023-08-15T10:06:15.206Z,1009.44
2023-08-15T10:07:15.199Z,1009.43
2023-08-15T10:08:15.174Z,1009.45
2023-08-15T10:09:15.171Z,1009.46
2023-08-15T10:10:15.185Z,1009.48
2023-08-15T10:11:15.161Z,1009.51
2023-08-15T10:12:15.159Z,1009.56
2023-08-15T10:13:15.123Z,1009.55
2023-08-15T10:14:15.108Z,1009.57
2023-08-15T10:15:15.102Z,1009.59
2023-08-15T10:16:15.121Z,1009.50
2023-08-15T10:17:15.191Z,1009.53
2023-08-15T10:18:15.095Z,1009.56
2023-08-15T10:19:15.060Z,1009.54
2023-08-15T10:20:15.048Z,1009.55
2023-08-15T10:21:15.045Z,1009.58
2023-08-15T10:22:15.031Z,1009.53
2023-08-15T10:23:15.067Z,1009.57
2023-08-15T10:24:14.996Z,1009.57
2023-08-15T10:25:15.017Z,1009.62
2023-08-15T10:26:14.992Z,1009.62
2023-08-15T10:27:14.998Z,1009.59
2023-08-15T10:28:14.962Z,1009.59
2023-08-15T10:29:14.973Z,1009.62
2023-08-15T10:30:14.942Z,1009.63
2023-08-15T10:31:14.971Z,1009.67
2023-08-15T10:32:14.912Z,1009.71
2023-08-15T10:33:14.971Z,1009.68
2023-08-15T10:34:14.887Z,1009.66
2023-08-15T10:35:14.896Z,1009.69
2023-08-15T10:36:14.864Z,1009.68
2023-08-15T10:37:14.859Z,1009.66
2023-08-15T10:38:14.851Z,1009.65
2023-08-15T10:39:14.839Z,1009.67
2023-08-15T10:40:14.851Z,1009.69
2023-08-15T10:41:14.816Z,1009.68
2023-08-15T10:42:14.798Z,1009.68
2023-08-15T10:43:14.791Z,1009.65
2023-08-15T10:44:14.788Z,1009.68
2023-08-15T10:45:14.787Z,1009.66
2023-08-15T10:46:14.776Z,1009.69
2023-08-15T10:47:14.753Z,1009.75
2023-08-15T10:48:14.798Z,1009.78
2023-08-15T10:49:14.747Z,1009.76
2023-08-15T10:50:14.727Z,1009.75
2023-08-15T10:51:14.725Z,1009.71
2023-08-15T10:52:14.687Z,1009.66
2023-08-15T10:53:16.679Z,1009.65
2023-08-15T10:54:14.936Z,1009.66
2023-08-15T10:55:14.688Z,1009.63
2023-08-15T10:56:14.675Z,1009.61
2023-08-15T10:57:14.637Z,1009.66
2023-08-15T10:58:14.628Z,1009.65
2023-08-15T10:59:14.682Z,1009.63
2023-08-15T11:00:14.599Z,1009.58
2023-08-15T11:01:14.596Z,1009.71
2023-08-15T11:02:14.609Z,1009.70
2023-08-15T11:03:14.625Z,1009.73
2023-08-15T11:04:14.563Z,1009.70
2023-08-15T11:05:14.585Z,1009.69
2023-08-15T11:06:14.536Z,1009.70
2023-08-15T11:07:14.535Z,1009.74
2023-08-15T11:08:14.524Z,1009.73
2023-08-15T11:09:14.509Z,1009.78
2023-08-15T11:10:14.513Z,1009.71
2023-08-15T11:11:14.488Z,1009.76
2023-08-15T11:12:14.498Z,1009.73
2023-08-15T11:13:14.484Z,1009.77
2023-08-15T11:14:14.474Z,1009.83
2023-08-15T11:15:14.440Z,1009.80
2023-08-15T11:16:14.463Z,1009.81
2023-08-15T11:17:14.448Z,1009.80
2023-08-15T11:18:14.404Z,1009.83
2023-08-15T11:19:14.396Z,1009.85
2023-08-15T11:20:14.383Z,1009.86
2023-08-15T11:21:14.395Z,1009.88
2023-08-15T11:22:14.372Z,1009.89
2023-08-15T11:23:14.354Z,1009.87
2023-08-15T11:24:14.351Z,1009.87
2023-08-15T11:25:14.343Z,1009.93
2023-08-15T11:26:14.347Z,1009.97
2023-08-15T11:27:14.336Z,1010.01
2023-08-15T11:28:14.326Z,1009.99
2023-08-15T11:29:14.771Z,1009.93
2023-08-15T11:30:14.275Z,1009.98
2023-08-15T11:32:14.297Z,1009.97
2023-08-15T11:33:14.247Z,1010.03
2023-08-15T11:34:14.229Z,1009.99
2023-08-15T11:35:14.230Z,1009.99
2023-08-15T11:36:14.258Z,1009.98
2023-08-15T11:37:14.202Z,1009.97
2023-08-15T11:38:14.192Z,1009.99
2023-08-15T11:39:14.440Z,1009.99
2023-08-15T11:40:14.166Z,1010.00
2023-08-15T11:41:14.170Z,1010.00
2023-08-15T11:42:16.028Z,1010.01
2023-08-15T11:43:14.173Z,1010.05
2023-08-15T11:44:14.123Z,1009.99
2023-08-15T11:45:14.130Z,1010.04
2023-08-15T11:46:14.192Z,1010.06
2023-08-15T11:47:14.097Z,1010.05
2023-08-15T11:48:14.945Z,1010.14
2023-08-15T11:49:14.077Z,1010.14
2023-08-15T11:50:14.075Z,1010.17
2023-08-15T11:51:14.052Z,1010.18
2023-08-15T11:52:14.044Z,1010.20
2023-08-15T11:53:14.046Z,1010.19
2023-08-15T11:54:14.022Z,1010.21
2023-08-15T11:55:14.043Z,1010.16
2023-08-15T11:56:14.001Z,1010.16
2023-08-15T11:57:14.057Z,1010.14
2023-08-15T11:58:13.981Z,1010.16
2023-08-15T11:59:13.976Z,1010.11
2023-08-15T12:00:13.982Z,1010.14
2023-08-15T12:01:13.985Z,1010.17
2023-08-15T12:02:13.943Z,1010.16
2023-08-15T12:03:14.053Z,1010.18
2023-08-15T12:04:13.921Z,1010.17
2023-08-15T12:05:13.910Z,1010.12
2023-08-15T12:06:13.921Z,1010.12